Time;durP1;ratioP1;P1;durP2;ratioP2;P2;SDS_P1;SDS_P2;PMS_P1;PMS_P2;Temp;Humidity;BMP_temperature;BMP_pressure;BME280_temperature;BME280_humidity;BME280_pressure;Samples;Min_cycle;Max_cycle;Signal;HPM_P1;HPM_P2
2021/10/01 00:00:00;;;;;;;13.00;9.25;;;;;;;10.32;81.04;94393.28;5071988;28;20024;-49
2021/10/01 00:02:26;;;;;;;15.55;10.45;;;;;;;10.36;81.16;94401.25;5071921;28;20028;-50
2021/10/01 00:04:51;;;;;;;15.70;9.05;;;;;;;10.06;80.82;94370.28;5071576;28;20443;-49
2021/10/01 00:07:18;;;;;;;22.15;9.32;;;;;;;10.21;81.42;94398.94;5071591;28;20028;-49
2021/10/01 00:09:43;;;;;;;15.68;9.18;;;;;;;10.12;80.81;94393.81;5071721;28;20035;-49
2021/10/01 00:12:09;;;;;;;16.05;9.43;;;;;;;10.14;81.30;94401.56;5071461;28;20021;-49
2021/10/01 00:14:36;;;;;;;12.57;8.65;;;;;;;10.14;81.21;94402.31;5071694;28;20511;-50
2021/10/01 00:17:02;;;;;;;12.63;8.13;;;;;;;10.02;81.31;94402.94;5071279;28;20025;-49
2021/10/01 00:19:28;;;;;;;16.00;8.75;;;;;;;10.03;81.27;94396.91;5071091;28;20029;-48
2021/10/01 00:21:54;;;;;;;18.75;8.65;;;;;;;10.06;81.23;94406.16;5070577;28;20044;-50
2021/10/01 00:24:20;;;;;;;13.50;8.20;;;;;;;10.02;81.41;94400.94;5070957;28;20024;-50
2021/10/01 00:26:45;;;;;;;11.68;7.95;;;;;;;9.95;81.03;94376.72;5071427;28;20020;-49
2021/10/01 00:29:11;;;;;;;8.60;7.15;;;;;;;9.97;81.20;94396.25;5071340;28;20488;-49
2021/10/01 00:31:37;;;;;;;12.65;7.43;;;;;;;9.91;81.92;94392.81;5071118;28;20017;-51
2021/10/01 00:34:03;;;;;;;9.75;7.22;;;;;;;9.97;81.20;94389.97;5070800;28;20024;-49
2021/10/01 00:36:29;;;;;;;9.13;7.00;;;;;;;9.86;81.61;94394.38;5071293;28;20031;-50
2021/10/01 00:38:57;;;;;;;10.20;6.65;;;;;;;9.93;81.07;94390.28;5071308;28;20029;-49
2021/10/01 00:41:22;;;;;;;10.15;6.78;;;;;;;9.92;81.13;94389.53;5070849;28;20035;-49
2021/10/01 00:43:48;;;;;;;12.65;7.55;;;;;;;9.77;81.33;94377.44;5071111;28;20025;-51
2021/10/01 00:46:13;;;;;;;16.95;7.95;;;;;;;9.72;81.73;94386.56;5070778;28;20414;-49
2021/10/01 00:48:39;;;;;;;13.77;8.57;;;;;;;9.64;82.63;94383.63;5069860;28;20028;-49
2021/10/01 00:51:05;;;;;;;18.83;8.50;;;;;;;9.72;81.81;94375.53;5070746;28;20480;-52
2021/10/01 00:53:30;;;;;;;13.98;7.88;;;;;;;9.67;81.69;94379.84;5069892;28;20012;-49
2021/10/01 00:55:56;;;;;;;10.05;7.97;;;;;;;9.53;82.95;94375.47;5069808;28;20021;-49
2021/10/01 00:58:21;;;;;;;12.77;7.47;;;;;;;9.61;82.86;94375.66;5069767;28;20450;-50
2021/10/01 01:01:06;;;;;;;13.50;8.43;;;;;;;9.62;82.63;94380.63;5070557;28;20145;-49
2021/10/01 01:03:32;;;;;;;13.32;8.15;;;;;;;9.64;82.29;94380.09;5070495;28;20043;-50
2021/10/01 01:06:13;;;;;;;8.20;6.63;;;;;;;9.61;81.62;94373.66;5070535;28;20025;-48
2021/10/01 01:08:46;;;;;;;9.82;6.38;;;;;;;9.61;81.54;94381.91;5070702;28;20043;-48
2021/10/01 01:11:23;;;;;;;9.82;6.70;;;;;;;9.66;81.09;94383.09;5070800;28;20163;-49
2021/10/01 01:13:54;;;;;;;14.68;7.22;;;;;;;9.65;81.29;94367.84;5070528;28;20021;-49
2021/10/01 01:16:25;;;;;;;11.18;6.97;;;;;;;9.62;80.81;94368.84;5069198;28;20052;-49
2021/10/01 01:18:52;;;;;;;12.15;8.10;;;;;;;9.60;81.07;94365.88;5073097;28;20027;-49
2021/10/01 01:21:43;;;;;;;12.65;8.23;;;;;;;9.63;80.89;94362.09;5070446;28;20495;-50
2021/10/01 01:24:46;;;;;;;13.63;9.23;;;;;;;9.54;80.61;94365.97;5069029;28;20025;-50
2021/10/01 01:27:33;;;;;;;12.60;8.55;;;;;;;9.33;80.74;94348.44;5070410;28;20695;-49
2021/10/01 01:30:16;;;;;;;11.43;7.43;;;;;;;9.39;80.73;94362.88;5069462;28;20078;-49
2021/10/01 01:32:45;;;;;;;16.73;8.10;;;;;;;9.32;81.23;94357.94;5069370;28;20096;-49
2021/10/01 01:35:19;;;;;;;12.38;7.90;;;;;;;9.42;81.08;94364.59;5070285;28;20028;-51
2021/10/01 01:37:50;;;;;;;7.82;6.32;;;;;;;9.33;81.06;94362.22;5069048;28;20553;-50
2021/10/01 01:40:18;;;;;;;11.20;7.70;;;;;;;9.14;82.24;94370.41;5069451;28;20103;-48
2021/10/01 01:42:44;;;;;;;13.32;7.60;;;;;;;8.92;83.33;94358.91;5070036;28;20032;-48
2021/10/01 01:45:13;;;;;;;10.57;8.40;;;;;;;9.01;83.17;94364.03;5070242;28;20074;-49
2021/10/01 01:47:39;;;;;;;11.95;7.88;;;;;;;9.25;82.47;94363.31;5070536;28;20373;-49
2021/10/01 01:50:06;;;;;;;13.05;8.18;;;;;;;9.34;81.85;94360.19;5068947;28;20028;-50
2021/10/01 01:52:32;;;;;;;12.93;8.18;;;;;;;9.35;82.27;94361.69;5068888;28;20052;-51
2021/10/01 01:54:58;;;;;;;12.05;8.18;;;;;;;9.36;82.46;94369.41;5069147;28;20022;-50
2021/10/01 01:57:24;;;;;;;15.85;8.25;;;;;;;9.42;82.61;94363.88;5070348;28;20044;-50
2021/10/01 01:59:50;;;;;;;14.88;8.65;;;;;;;9.38;82.49;94355.13;5068925;28;20020;-50
2021/10/01 02:02:17;;;;;;;10.60;8.43;;;;;;;9.50;82.06;94360.00;5068756;28;20120;-50
2021/10/01 02:04:44;;;;;;;10.77;7.28;;;;;;;9.38;82.30;94350.34;5070205;28;20376;-49
2021/10/01 02:07:10;;;;;;;16.88;8.20;;;;;;;9.46;82.58;94361.56;5069040;28;20020;-49
2021/10/01 02:09:36;;;;;;;11.48;7.20;;;;;;;9.46;82.15;94367.06;5069924;28;20024;-48
2021/10/01 02:12:02;;;;;;;9.48;6.30;;;;;;;9.53;82.09;94358.22;5068577;28;20056;-50
2021/10/01 02:14:29;;;;;;;8.85;6.45;;;;;;;9.42;82.62;94364.59;5069812;28;20032;-49
2021/10/01 02:16:56;;;;;;;13.05;8.73;;;;;;;9.44;82.72;94358.56;5068628;28;20020;-51
2021/10/01 02:19:23;;;;;;;18.48;9.88;;;;;;;9.26;83.23;94353.75;5068612;28;20411;-51
2021/10/01 02:21:50;;;;;;;13.60;8.35;;;;;;;9.44;83.25;94361.34;5068637;28;20493;-49
2021/10/01 02:24:16;;;;;;;10.52;7.05;;;;;;;9.48;83.23;94345.25;5069702;28;20116;-51
2021/10/01 02:26:46;;;;;;;17.17;9.57;;;;;;;9.32;83.01;94357.19;5068839;28;20077;-51
2021/10/01 02:29:41;;;;;;;18.42;11.30;;;;;;;9.22;83.29;94356.06;5068562;28;20032;-50
2021/10/01 02:32:13;;;;;;;21.73;10.95;;;;;;;8.89;84.16;94351.66;5063799;28;20028;-49
2021/10/01 02:34:41;;;;;;;17.90;11.70;;;;;;;8.95;85.43;94357.84;5070060;28;20032;-50
2021/10/01 02:37:07;;;;;;;13.75;8.63;;;;;;;9.11;85.10;94360.44;5069898;28;20032;-50
2021/10/01 02:39:39;;;;;;;14.38;8.85;;;;;;;9.27;83.62;94360.78;5069885;28;20021;-51
2021/10/01 02:42:06;;;;;;;13.30;9.23;;;;;;;9.29;83.19;94355.50;5069757;28;20028;-50
2021/10/01 02:44:32;;;;;;;13.45;9.63;;;;;;;9.35;83.21;94345.91;5069881;28;20112;-49
2021/10/01 02:46:57;;;;;;;12.43;9.38;;;;;;;9.20;82.93;94350.34;5072124;28;20028;-50
2021/10/01 02:49:23;;;;;;;13.35;9.13;;;;;;;9.22;83.93;94342.28;5073028;28;20607;-49
2021/10/01 02:51:51;;;;;;;13.70;8.80;;;;;;;9.52;83.57;94353.97;5073369;28;20027;-50
2021/10/01 02:54:31;;;;;;;10.13;7.82;;;;;;;9.37;83.44;94354.41;5071793;28;20027;-49
2021/10/01 02:57:06;;;;;;;11.13;7.68;;;;;;;9.45;83.80;94344.25;5072104;28;20027;-49
2021/10/01 02:59:32;;;;;;;9.80;7.28;;;;;;;9.45;83.59;94354.53;5072057;28;20035;-49
2021/10/01 03:01:59;;;;;;;9.77;6.65;;;;;;;9.54;82.96;94343.91;5071605;28;20021;-49
2021/10/01 03:04:25;;;;;;;10.73;7.03;;;;;;;9.50;83.27;94343.47;5071812;28;20043;-49
2021/10/01 03:06:51;;;;;;;12.10;6.97;;;;;;;9.62;82.80;94355.06;5073053;28;20497;-48
2021/10/01 03:09:17;;;;;;;21.88;7.38;;;;;;;9.68;83.31;94348.22;5071562;28;20117;-49
2021/10/01 03:11:43;;;;;;;9.70;7.60;;;;;;;9.68;83.57;94353.00;5071394;28;20028;-50
2021/10/01 03:14:09;;;;;;;8.75;6.55;;;;;;;9.61;82.94;94339.81;5072938;28;20063;-49
2021/10/01 03:16:35;;;;;;;18.30;7.75;;;;;;;9.69;82.92;94354.50;5071652;28;20032;-49
2021/10/01 03:19:01;;;;;;;11.70;9.25;;;;;;;9.65;82.85;94354.78;5071287;28;20025;-49
2021/10/01 03:21:27;;;;;;;9.57;7.47;;;;;;;9.76;82.75;94351.91;5071373;28;20044;-48
2021/10/01 03:23:53;;;;;;;8.88;7.03;;;;;;;9.53;82.69;94330.66;5072655;28;20693;-49
2021/10/01 03:26:19;;;;;;;8.35;7.53;;;;;;;9.63;83.10;94335.28;5072436;28;20020;-50
2021/10/01 03:28:45;;;;;;;11.13;7.85;;;;;;;9.73;82.61;94341.16;5072281;28;20063;-51
2021/10/01 03:31:11;;;;;;;11.80;7.85;;;;;;;9.80;82.91;94343.31;5072597;28;20048;-51
2021/10/01 03:33:37;;;;;;;12.27;7.13;;;;;;;9.89;82.64;94340.94;5072580;28;20422;-48
2021/10/01 03:36:04;;;;;;;15.60;7.47;;;;;;;9.88;82.69;94346.97;5072514;28;20028;-49
2021/10/01 03:38:30;;;;;;;9.25;7.18;;;;;;;9.85;82.70;94348.75;5072555;28;20031;-50
2021/10/01 03:40:58;;;;;;;13.10;7.85;;;;;;;9.86;82.38;94343.97;5071814;28;20024;-49
2021/10/01 03:43:26;;;;;;;15.18;7.65;;;;;;;9.83;82.01;94340.25;5070290;28;20105;-49
2021/10/01 03:45:53;;;;;;;9.43;7.28;;;;;;;9.89;81.83;94342.94;5072048;28;20024;-49
2021/10/01 03:48:19;;;;;;;10.68;7.38;;;;;;;9.86;81.75;94347.50;5072291;28;20380;-49
2021/10/01 03:50:45;;;;;;;9.93;7.25;;;;;;;9.53;81.81;94311.34;5071887;28;20499;-48
2021/10/01 03:53:11;;;;;;;17.48;7.65;;;;;;;9.75;83.12;94342.13;5072144;28;20104;-51
2021/10/01 03:55:37;;;;;;;12.35;7.45;;;;;;;9.69;82.69;94302.09;5071872;28;20496;-49
2021/10/01 03:58:02;;;;;;;20.27;7.57;;;;;;;9.98;82.35;94342.56;5071738;28;20032;-49
2021/10/01 04:00:28;;;;;;;11.93;7.72;;;;;;;9.84;82.15;94343.75;5071763;28;20024;-51
2021/10/01 04:02:53;;;;;;;16.70;9.57;;;;;;;9.56;83.17;94340.63;5071914;28;20021;-49
2021/10/01 04:05:19;;;;;;;14.55;9.77;;;;;;;9.61;83.93;94318.50;5071533;28;20024;-49
2021/10/01 04:07:45;;;;;;;19.67;15.40;;;;;;;9.67;82.90;94344.00;5071596;28;20073;-48
2021/10/01 04:10:11;;;;;;;25.67;14.95;;;;;;;9.55;83.46;94341.91;5071949;28;20044;-49
2021/10/01 04:12:37;;;;;;;20.45;12.98;;;;;;;9.62;83.61;94346.81;5071810;28;20069;-49
2021/10/01 04:15:03;;;;;;;19.50;14.23;;;;;;;9.35;83.10;94296.28;5071814;28;20025;-49
2021/10/01 04:17:29;;;;;;;11.07;9.15;;;;;;;9.75;83.38;94344.88;5071392;28;20515;-49
2021/10/01 04:19:55;;;;;;;15.00;12.90;;;;;;;9.78;83.55;94351.38;5070246;28;20042;-51
2021/10/01 04:22:20;;;;;;;16.88;11.65;;;;;;;9.74;83.19;94348.91;5065830;28;20049;-52
2021/10/01 04:24:46;;;;;;;19.02;12.02;;;;;;;9.80;82.99;94354.34;5069577;28;20475;-51
2021/10/01 04:27:11;;;;;;;16.70;11.45;;;;;;;9.77;83.12;94355.38;5070080;28;20036;-50
2021/10/01 04:29:36;;;;;;;13.65;11.27;;;;;;;9.85;82.65;94354.25;5070199;28;20500;-51
2021/10/01 04:32:05;;;;;;;13.90;11.98;;;;;;;9.84;82.60;94355.53;5070841;28;20028;-53
2021/10/01 04:34:33;;;;;;;18.23;11.57;;;;;;;9.61;83.46;94356.34;5071485;28;20047;-51
2021/10/01 04:37:00;;;;;;;15.33;10.93;;;;;;;9.59;83.94;94348.63;5071392;28;20519;-50
2021/10/01 04:39:25;;;;;;;12.23;10.02;;;;;;;9.62;83.91;94342.03;5071278;28;20426;-50
2021/10/01 04:41:51;;;;;;;11.57;10.35;;;;;;;9.75;83.90;94361.44;5071130;28;20033;-49
2021/10/01 04:44:16;;;;;;;15.05;10.15;;;;;;;9.93;84.01;94365.44;5070121;28;20024;-50
2021/10/01 04:46:42;;;;;;;14.00;10.38;;;;;;;9.98;83.47;94372.16;5069460;28;20085;-51
2021/10/01 04:49:08;;;;;;;16.00;11.45;;;;;;;9.79;83.62;94344.56;5069140;28;20033;-49
2021/10/01 04:51:33;;;;;;;11.40;9.20;;;;;;;10.06;82.93;94370.28;5069125;28;20099;-50
2021/10/01 04:53:59;;;;;;;24.40;10.77;;;;;;;10.07;82.63;94374.56;5069376;28;20028;-49
2021/10/01 04:56:24;;;;;;;18.52;10.85;;;;;;;10.09;83.21;94383.78;5068998;28;20485;-49
2021/10/01 04:58:50;;;;;;;13.63;11.50;;;;;;;10.04;83.33;94376.34;5069173;28;20016;-52
2021/10/01 05:01:16;;;;;;;14.88;11.05;;;;;;;10.23;82.96;94376.34;5070428;28;20017;-53
2021/10/01 05:03:41;;;;;;;17.85;12.10;;;;;;;10.18;82.79;94377.19;5070895;28;20484;-49
2021/10/01 05:06:06;;;;;;;19.60;15.13;;;;;;;10.20;82.31;94389.16;5070828;28;20414;-52
2021/10/01 05:08:32;;;;;;;16.75;11.75;;;;;;;10.17;82.63;94387.47;5070364;28;20472;-50
2021/10/01 05:10:57;;;;;;;15.00;10.82;;;;;;;10.15;83.09;94384.50;5070513;28;20059;-49
2021/10/01 05:13:23;;;;;;;13.60;8.05;;;;;;;9.93;83.00;94370.97;5070768;28;20095;-51
2021/10/01 05:15:50;;;;;;;13.07;9.25;;;;;;;10.09;82.90;94372.00;5070759;28;20116;-50
2021/10/01 05:18:16;;;;;;;21.40;8.93;;;;;;;10.26;82.95;94387.09;5070640;28;20025;-50
2021/10/01 05:20:42;;;;;;;11.60;8.85;;;;;;;10.26;82.67;94373.28;5069810;28;20719;-51
2021/10/01 05:23:07;;;;;;;16.05;8.77;;;;;;;10.44;82.36;94394.59;5070361;28;20017;-50
2021/10/01 05:25:33;;;;;;;12.15;9.15;;;;;;;10.50;82.91;94391.75;5070602;28;20032;-51
2021/10/01 05:27:59;;;;;;;10.98;8.32;;;;;;;10.45;82.56;94393.31;5070356;28;20020;-49
2021/10/01 05:30:24;;;;;;;10.77;8.27;;;;;;;10.43;82.69;94395.88;5070221;28;20055;-52
2021/10/01 05:32:50;;;;;;;10.35;8.38;;;;;;;10.54;82.52;94384.66;5070434;28;20032;-52
2021/10/01 05:35:15;;;;;;;11.70;8.00;;;;;;;10.60;82.31;94395.59;5070502;28;20498;-50
2021/10/01 05:37:41;;;;;;;11.35;7.55;;;;;;;10.76;81.86;94391.84;5070533;28;20106;-49
2021/10/01 05:40:07;;;;;;;10.13;8.07;;;;;;;10.77;81.91;94406.38;5069341;28;20024;-49
2021/10/01 05:42:33;;;;;;;13.40;8.65;;;;;;;10.53;81.39;94354.78;5070428;28;20024;-53
2021/10/01 05:44:58;;;;;;;17.08;10.32;;;;;;;10.90;81.21;94395.34;5070123;28;20483;-50
2021/10/01 05:47:24;;;;;;;11.77;8.35;;;;;;;10.94;80.23;94393.03;5070142;28;20020;-48
2021/10/01 05:49:49;;;;;;;14.35;9.18;;;;;;;10.81;80.43;94385.47;5070068;28;20036;-50
2021/10/01 05:52:37;;;;;;;13.23;8.80;;;;;;;11.02;80.20;94394.63;5070407;28;20020;-51
2021/10/01 05:55:03;;;;;;;18.40;12.50;;;;;;;11.12;79.52;94372.88;5070166;28;20629;-49
2021/10/01 05:57:28;;;;;;;17.73;10.65;;;;;;;11.24;79.02;94388.72;5069939;28;20024;-49
2021/10/01 05:59:54;;;;;;;41.63;23.23;;;;;;;11.43;78.13;94394.16;5069183;28;20078;-49
2021/10/01 06:02:21;;;;;;;43.70;26.25;;;;;;;11.52;77.81;94402.00;5069975;28;20025;-51
2021/10/01 06:04:50;;;;;;;38.47;23.27;;;;;;;11.47;78.09;94402.13;5069889;28;20036;-52
2021/10/01 06:07:16;;;;;;;28.10;18.40;;;;;;;11.67;76.97;94412.59;5069930;28;20020;-51
2021/10/01 06:09:43;;;;;;;21.83;12.55;;;;;;;11.82;75.02;94399.72;5070241;28;20043;-50
2021/10/01 06:12:09;;;;;;;15.63;11.48;;;;;;;11.84;75.14;94401.94;5070181;28;20404;-49
2021/10/01 06:14:36;;;;;;;17.10;10.82;;;;;;;11.89;74.61;94385.22;5070192;28;20462;-50
2021/10/01 06:17:02;;;;;;;13.13;8.65;;;;;;;12.19;72.72;94401.47;5070229;28;20029;-51
2021/10/01 06:19:28;;;;;;;16.98;8.43;;;;;;;12.30;72.32;94403.22;5069406;28;20492;-52
2021/10/01 06:21:56;;;;;;;15.38;8.95;;;;;;;12.80;71.63;94392.47;5071971;28;20040;-50
2021/10/01 06:24:22;;;;;;;11.23;6.80;;;;;;;12.81;70.08;94398.75;5073703;28;20020;-50
2021/10/01 06:26:47;;;;;;;11.55;6.20;;;;;;;13.51;66.47;94400.25;5073846;28;20396;-51
2021/10/01 06:29:15;;;;;;;11.80;7.28;;;;;;;13.57;67.04;94389.03;5073957;28;20028;-49
2021/10/01 06:31:40;;;;;;;10.65;7.00;;;;;;;14.02;63.76;94380.94;5073447;28;20435;-50
2021/10/01 06:34:06;;;;;;;11.10;6.63;;;;;;;14.94;60.88;94402.88;5073689;28;20013;-50
2021/10/01 06:36:31;;;;;;;12.45;6.05;;;;;;;15.39;59.66;94404.19;5073672;28;20025;-48
2021/10/01 06:38:57;;;;;;;15.88;7.13;;;;;;;15.46;58.83;94400.69;5073532;28;20412;-49
2021/10/01 06:41:22;;;;;;;11.40;6.70;;;;;;;15.84;58.27;94404.91;5073609;28;20078;-49
2021/10/01 06:43:55;;;;;;;13.38;6.50;;;;;;;15.92;57.26;94386.13;5073430;28;20024;-49
2021/10/01 06:51:52;;;;;;;9.68;4.82;;;;;;;17.67;47.90;94408.19;5073489;28;20033;-48
2021/10/01 08:20:54;;;;;;;8.05;4.00;;;;;;;16.68;37.00;94416.50;5071114;28;20064;-49
2021/10/01 08:23:19;;;;;;;10.32;4.30;;;;;;;16.27;38.19;94419.81;5071276;28;20035;-50
2021/10/01 08:25:45;;;;;;;6.22;3.90;;;;;;;16.02;40.09;94414.16;5071539;28;20111;-49
2021/10/01 08:28:10;;;;;;;5.05;4.15;;;;;;;15.87;41.03;94411.41;5071531;28;20118;-48
2021/10/01 08:30:36;;;;;;;5.50;4.32;;;;;;;15.63;41.96;94420.34;5071097;28;20020;-50
2021/10/01 08:33:03;;;;;;;7.97;4.35;;;;;;;15.35;41.47;94412.16;5071121;28;20464;-48
2021/10/01 08:35:28;;;;;;;10.10;5.13;;;;;;;15.26;42.04;94416.25;5071354;28;20025;-51
2021/10/01 08:37:55;;;;;;;5.20;3.97;;;;;;;14.98;41.31;94413.63;5071363;28;20107;-49
2021/10/01 08:40:23;;;;;;;6.63;4.45;;;;;;;14.75;42.88;94408.03;5070992;28;20032;-49
2021/10/01 08:42:50;;;;;;;7.90;4.38;;;;;;;14.56;42.85;94395.75;5071019;28;20041;-48
2021/10/01 08:45:17;;;;;;;10.80;6.20;;;;;;;14.52;42.48;94406.50;5070223;28;20036;-49
2021/10/01 08:47:43;;;;;;;11.43;4.88;;;;;;;14.20;43.31;94387.47;5071212;28;20055;-49
2021/10/01 08:50:11;;;;;;;8.30;5.00;;;;;;;14.26;45.42;94401.94;5069923;28;20028;-51
2021/10/01 08:52:36;;;;;;;6.88;4.60;;;;;;;14.26;44.22;94408.25;5071058;28;20469;-47
2021/10/01 08:55:04;;;;;;;7.05;4.60;;;;;;;14.29;44.80;94401.59;5071125;28;20028;-48
2021/10/01 08:57:31;;;;;;;7.55;4.63;;;;;;;14.15;45.72;94396.72;5070711;28;20029;-50
2021/10/01 08:59:58;;;;;;;5.32;4.57;;;;;;;14.34;44.48;94397.91;5070710;28;20024;-51
2021/10/01 09:02:23;;;;;;;8.52;4.80;;;;;;;14.38;45.05;94403.13;5070909;28;20450;-48
2021/10/01 09:04:49;;;;;;;11.15;4.97;;;;;;;14.27;44.77;94403.44;5070611;28;20099;-48
2021/10/01 09:07:15;;;;;;;5.30;4.60;;;;;;;14.01;44.20;94404.41;5069411;28;20039;-52
2021/10/01 09:09:45;;;;;;;6.68;4.53;;;;;;;13.65;45.53;94404.44;5070802;28;20031;-50
2021/10/01 09:12:14;;;;;;;6.93;4.70;;;;;;;13.68;45.44;94403.34;5070876;28;20040;-50
2021/10/01 09:14:56;;;;;;;7.75;4.95;;;;;;;13.76;45.55;94410.94;5069209;28;20025;-50
2021/10/01 09:17:24;;;;;;;5.85;4.18;;;;;;;13.92;45.14;94416.06;5070799;28;20047;-48
2021/10/01 09:19:51;;;;;;;10.53;4.60;;;;;;;14.09;44.14;94371.16;5070095;28;20024;-48
2021/10/01 09:22:37;;;;;;;7.32;4.65;;;;;;;15.39;45.04;94401.41;5070176;28;20455;-48
2021/10/01 09:25:21;;;;;;;7.85;4.80;;;;;;;15.46;44.14;94407.00;5070293;28;20577;-49
2021/10/01 09:27:51;;;;;;;6.72;5.05;;;;;;;15.50;43.65;94403.84;5070305;28;20036;-49
2021/10/01 09:30:20;;;;;;;5.80;4.50;;;;;;;15.48;43.61;94409.97;5070718;28;20055;-48
2021/10/01 09:33:21;;;;;;;12.05;5.32;;;;;;;15.44;43.56;94408.88;5070264;28;20024;-49
2021/10/01 09:35:47;;;;;;;7.65;5.22;;;;;;;15.44;42.95;94406.06;5027876;28;20598;-50
2021/10/01 09:38:14;;;;;;;6.32;4.63;;;;;;;15.54;41.11;94404.19;5061333;28;20040;-48
2021/10/01 09:40:42;;;;;;;8.98;5.50;;;;;;;15.54;42.36;94404.19;5070228;28;20530;-47
2021/10/01 09:43:26;;;;;;;6.72;5.03;;;;;;;16.07;39.60;94396.47;5069897;28;20107;-48
2021/10/01 09:46:04;;;;;;;11.23;4.28;;;;;;;16.00;39.50;94400.03;5070145;28;20518;-49
2021/10/01 09:48:36;;;;;;;8.55;4.07;;;;;;;16.29;39.68;94384.50;5070466;28;20021;-49
2021/10/01 09:51:13;;;;;;;9.98;5.53;;;;;;;17.00;39.75;94393.44;5070172;28;20025;-51
2021/10/01 09:53:43;;;;;;;10.15;5.13;;;;;;;19.17;36.30;94397.22;5070080;28;20518;-49
2021/10/01 09:56:30;;;;;;;7.03;3.63;;;;;;;20.98;30.77;94384.75;5072993;28;20530;-50
2021/10/01 09:59:05;;;;;;;6.57;3.95;;;;;;;21.62;31.22;94386.44;5073182;28;20504;-50
2021/10/01 10:01:31;;;;;;;10.18;3.88;;;;;;;21.77;30.56;94379.69;5074294;28;20028;-48
2021/10/01 10:03:56;;;;;;;7.75;3.75;;;;;;;22.41;29.68;94375.56;5072662;28;20435;-47
2021/10/01 10:06:22;;;;;;;6.93;3.92;;;;;;;21.81;28.94;94371.53;5072802;28;20060;-49
2021/10/01 10:08:48;;;;;;;7.22;4.55;;;;;;;20.92;31.32;94373.81;5074082;28;20096;-49
2021/10/01 10:11:16;;;;;;;5.85;4.70;;;;;;;20.12;32.45;94379.22;5074232;28;20025;-48
2021/10/01 10:13:44;;;;;;;9.13;4.50;;;;;;;19.79;31.62;94383.75;5073859;28;20115;-50
2021/10/01 10:16:16;;;;;;;6.10;3.87;;;;;;;19.63;32.10;94372.81;5074065;28;20029;-47
2021/10/01 10:18:42;;;;;;;7.80;4.57;;;;;;;19.18;33.80;94367.94;5074037;28;20430;-48
2021/10/01 10:21:09;;;;;;;5.28;4.78;;;;;;;18.73;35.21;94363.72;5073425;28;20075;-48
2021/10/01 10:23:34;;;;;;;6.35;5.13;;;;;;;18.31;35.30;94368.75;5073867;28;20052;-50
2021/10/01 10:26:00;;;;;;;7.00;4.50;;;;;;;17.75;35.11;94367.69;5073838;28;20577;-47
2021/10/01 10:28:25;;;;;;;7.55;5.13;;;;;;;17.17;36.40;94373.97;5073552;28;20025;-49
2021/10/01 10:30:52;;;;;;;8.98;5.20;;;;;;;16.72;37.78;94352.69;5073431;28;20106;-47
2021/10/01 10:33:35;;;;;;;5.85;5.28;;;;;;;16.79;38.67;94367.91;5072048;28;20021;-49
2021/10/01 10:36:01;;;;;;;7.10;4.97;;;;;;;16.45;39.25;94348.94;5073418;28;20028;-48
2021/10/01 10:38:33;;;;;;;5.65;4.10;;;;;;;17.03;36.76;94328.13;5073118;28;20029;-49
2021/10/01 10:41:24;;;;;;;6.35;4.90;;;;;;;19.50;33.48;94366.88;5073541;28;20419;-51
2021/10/01 10:43:50;;;;;;;5.20;4.03;;;;;;;20.19;30.82;94361.50;5073225;28;20021;-52
2021/10/01 10:46:36;;;;;;;5.72;4.10;;;;;;;19.99;31.85;94363.56;5073174;28;20056;-48
2021/10/01 10:49:13;;;;;;;4.50;4.10;;;;;;;19.82;34.61;94358.09;5065648;28;20079;-47
2021/10/01 10:51:57;;;;;;;7.80;4.47;;;;;;;19.67;32.08;94352.75;5073081;28;20552;-51
2021/10/01 10:54:25;;;;;;;5.38;4.28;;;;;;;18.93;33.11;94354.13;5073095;28;20573;-49
2021/10/01 10:57:16;;;;;;;13.60;4.43;;;;;;;18.45;33.55;94360.78;5073279;28;20253;-49
2021/10/01 10:59:56;;;;;;;11.95;5.43;;;;;;;17.94;35.81;94353.91;5072922;28;20573;-49
2021/10/01 11:02:30;;;;;;;12.52;7.03;;;;;;;17.93;35.70;94341.22;5073175;28;20430;-47
2021/10/01 11:05:21;;;;;;;7.78;5.50;;;;;;;18.37;36.34;94354.50;5073152;28;20025;-53
2021/10/01 11:07:48;;;;;;;8.65;4.72;;;;;;;18.63;34.07;94342.63;5072221;28;20059;-48
2021/10/01 11:10:33;;;;;;;6.13;4.05;;;;;;;18.49;36.73;94347.84;5073077;28;20031;-49
2021/10/01 11:13:29;;;;;;;13.85;6.20;;;;;;;18.24;36.20;94340.88;5072996;28;20420;-49
2021/10/01 11:16:12;;;;;;;14.25;8.32;;;;;;;18.30;35.91;94346.97;5062889;28;20048;-48
2021/10/01 11:21:24;;;;;;;10.95;4.22;;;;;;;18.16;35.50;94343.78;5072646;28;20048;-49
2021/10/01 11:24:05;;;;;;;5.05;4.47;;;;;;;18.35;34.57;94334.75;5072315;28;20060;-49
2021/10/01 11:26:48;;;;;;;12.05;4.63;;;;;;;18.76;34.76;94331.81;5072512;28;20029;-48
2021/10/01 11:29:24;;;;;;;8.95;5.03;;;;;;;19.64;35.22;94329.44;5072499;28;20036;-48
2021/10/01 11:31:54;;;;;;;7.65;4.20;;;;;;;20.72;31.83;94324.69;5072689;28;20028;-48
2021/10/01 11:34:46;;;;;;;4.70;3.50;;;;;;;21.84;29.92;94319.75;5072646;28;20407;-49
2021/10/01 11:37:25;;;;;;;7.60;4.28;;;;;;;21.90;31.64;94320.16;5072662;28;20131;-47
2021/10/01 11:39:59;;;;;;;7.75;3.83;;;;;;;21.25;30.38;94300.25;5072229;28;20032;-49
2021/10/01 11:42:24;;;;;;;5.45;4.40;;;;;;;21.03;31.54;94314.25;5072427;28;20042;-48
2021/10/01 11:44:50;;;;;;;4.28;3.75;;;;;;;20.39;31.58;94302.03;5072324;28;20115;-50
2021/10/01 11:47:16;;;;;;;5.30;4.07;;;;;;;20.29;30.46;94294.97;5072037;28;20108;-49
2021/10/01 11:49:41;;;;;;;12.48;4.40;;;;;;;20.56;31.74;94317.19;5072024;28;20028;-49
2021/10/01 11:52:10;;;;;;;6.38;3.60;;;;;;;20.37;31.85;94317.97;5071914;28;20079;-49
2021/10/01 11:54:36;;;;;;;10.55;4.72;;;;;;;20.09;31.65;94305.44;5072216;28;20027;-50
2021/10/01 11:57:05;;;;;;;5.45;4.10;;;;;;;20.00;34.65;94297.03;5072105;28;20028;-48
2021/10/01 11:59:51;;;;;;;4.88;4.03;;;;;;;19.79;33.16;94300.44;5072106;28;20090;-48
2021/10/01 12:02:46;;;;;;;6.07;3.65;;;;;;;19.24;33.47;94303.25;5071789;28;20028;-50
2021/10/01 12:05:20;;;;;;;7.78;4.05;;;;;;;18.72;35.04;94299.97;5063036;28;20125;-48
2021/10/01 12:07:52;;;;;;;6.60;4.50;;;;;;;18.32;36.43;94307.97;5071690;28;20052;-51
2021/10/01 12:10:18;;;;;;;7.95;4.55;;;;;;;18.14;37.01;94302.44;5071930;28;20036;-50
2021/10/01 12:13:13;;;;;;;8.38;4.90;;;;;;;18.03;37.12;94300.16;5071745;28;20017;-49
2021/10/01 12:15:48;;;;;;;5.22;4.20;;;;;;;18.11;37.43;94302.84;5071769;28;20043;-48
2021/10/01 12:18:41;;;;;;;8.77;3.90;;;;;;;17.83;36.69;94301.31;5071451;28;20108;-48
2021/10/01 12:21:21;;;;;;;6.55;3.97;;;;;;;17.21;38.17;94296.91;5070795;28;20106;-49
2021/10/01 12:23:59;;;;;;;5.43;4.28;;;;;;;17.03;37.69;94297.44;5071552;28;20025;-47
2021/10/01 12:26:34;;;;;;;8.27;4.75;;;;;;;17.00;41.78;94293.00;5071407;28;20031;-49
2021/10/01 12:29:17;;;;;;;6.95;4.20;;;;;;;17.58;39.29;94289.50;5071210;28;20074;-50
2021/10/01 12:31:45;;;;;;;5.95;4.22;;;;;;;18.07;38.61;94297.66;5071147;28;20028;-47
2021/10/01 12:34:17;;;;;;;5.72;4.03;;;;;;;18.38;37.35;94278.44;5071385;28;20016;-48
2021/10/01 12:36:44;;;;;;;5.97;3.90;;;;;;;18.67;36.82;94286.97;5071138;28;20056;-48
2021/10/01 12:39:10;;;;;;;4.90;3.63;;;;;;;18.68;36.16;94282.88;5071317;28;20024;-49
2021/10/01 12:41:36;;;;;;;7.22;4.00;;;;;;;18.88;36.55;94284.44;5071291;28;20069;-48
2021/10/01 12:44:03;;;;;;;7.07;4.05;;;;;;;18.67;36.32;94270.19;5070908;28;20561;-49
2021/10/01 12:46:44;;;;;;;6.72;3.85;;;;;;;18.83;35.86;94274.25;5070807;28;20506;-49
2021/10/01 12:49:17;;;;;;;8.63;3.97;;;;;;;18.67;36.94;94245.03;5071163;28;20020;-48
2021/10/01 12:51:59;;;;;;;6.65;4.75;;;;;;;18.92;36.57;94279.16;5071079;28;20033;-50
2021/10/01 12:54:25;;;;;;;7.30;3.80;;;;;;;18.57;37.01;94269.44;5071150;28;20095;-49
2021/10/01 12:57:15;;;;;;;9.93;4.50;;;;;;;18.49;36.55;94272.34;5070991;28;20025;-50
2021/10/01 12:59:48;;;;;;;5.90;3.47;;;;;;;18.28;36.70;94276.91;5070200;28;20043;-49
2021/10/01 13:02:47;;;;;;;11.02;4.72;;;;;;;18.17;37.76;94270.50;5070837;28;20460;-49
2021/10/01 13:05:19;;;;;;;7.13;3.88;;;;;;;18.06;38.09;94276.63;5072746;28;20515;-49
2021/10/01 13:07:46;;;;;;;3.88;3.47;;;;;;;17.80;37.85;94265.41;5070873;28;20037;-48
2021/10/01 13:10:14;;;;;;;7.60;4.25;;;;;;;17.71;38.75;94263.28;5070557;28;20178;-49
2021/10/01 13:12:54;;;;;;;5.18;4.00;;;;;;;17.75;38.87;94267.16;5070514;28;20044;-51
2021/10/01 13:15:24;;;;;;;4.63;3.63;;;;;;;18.02;38.86;94262.31;5070497;28;20035;-48
2021/10/01 13:18:09;;;;;;;8.48;4.43;;;;;;;17.95;38.33;94259.66;5070355;28;20028;-49